sensor_id;sensor_type;location;lat;lon;timestamp;P1;durP1;ratioP1;P2;durP2;ratioP2
6053;SDS011;3055;50.886;14.814;2022-07-29T00:01:49;6.03;;;3.50;;
6053;SDS011;3055;50.886;14.814;2022-07-29T00:04:17;5.00;;;2.93;;
6053;SDS011;3055;50.886;14.814;2022-07-29T00:06:44;6.80;;;3.80;;
6053;SDS011;3055;50.886;14.814;2022-07-29T00:09:11;3.50;;;3.20;;
6053;SDS011;3055;50.886;14.814;2022-07-29T00:11:38;3.10;;;2.80;;
6053;SDS011;3055;50.886;14.814;2022-07-29T00:14:05;4.10;;;2.50;;
6053;SDS011;3055;50.886;14.814;2022-07-29T00:16:32;5.20;;;2.60;;
6053;SDS011;3055;50.886;14.814;2022-07-29T00:19:00;5.77;;;3.00;;
6053;SDS011;3055;50.886;14.814;2022-07-29T00:21:27;6.80;;;3.30;;
6053;SDS011;3055;50.886;14.814;2022-07-29T00:23:54;4.67;;;4.03;;
6053;SDS011;3055;50.886;14.814;2022-07-29T00:26:21;4.97;;;3.07;;
6053;SDS011;3055;50.886;14.814;2022-07-29T00:28:48;4.73;;;3.13;;
6053;SDS011;3055;50.886;14.814;2022-07-29T00:31:16;6.07;;;3.57;;
6053;SDS011;3055;50.886;14.814;2022-07-29T00:33:42;5.30;;;3.40;;
6053;SDS011;3055;50.886;14.814;2022-07-29T00:36:11;5.37;;;3.20;;
6053;SDS011;3055;50.886;14.814;2022-07-29T00:38:37;9.23;;;3.40;;
6053;SDS011;3055;50.886;14.814;2022-07-29T00:41:04;5.53;;;3.77;;
6053;SDS011;3055;50.886;14.814;2022-07-29T00:43:30;6.33;;;3.40;;
6053;SDS011;3055;50.886;14.814;2022-07-29T00:45:57;5.17;;;3.40;;
6053;SDS011;3055;50.886;14.814;2022-07-29T00:48:24;5.37;;;3.40;;
6053;SDS011;3055;50.886;14.814;2022-07-29T00:50:51;4.50;;;3.17;;
6053;SDS011;3055;50.886;14.814;2022-07-29T00:53:20;6.37;;;3.43;;
6053;SDS011;3055;50.886;14.814;2022-07-29T00:55:47;4.17;;;3.00;;
6053;SDS011;3055;50.886;14.814;2022-07-29T00:58:14;6.10;;;3.17;;
6053;SDS011;3055;50.886;14.814;2022-07-29T01:00:41;3.33;;;2.83;;
6053;SDS011;3055;50.886;14.814;2022-07-29T01:03:09;6.53;;;3.10;;
6053;SDS011;3055;50.886;14.814;2022-07-29T01:05:36;3.70;;;2.60;;
6053;SDS011;3055;50.886;14.814;2022-07-29T01:08:03;4.57;;;2.40;;
6053;SDS011;3055;50.886;14.814;2022-07-29T01:10:32;4.20;;;2.50;;
6053;SDS011;3055;50.886;14.814;2022-07-29T01:13:02;3.00;;;2.60;;
6053;SDS011;3055;50.886;14.814;2022-07-29T01:15:29;5.03;;;2.50;;
6053;SDS011;3055;50.886;14.814;2022-07-29T01:17:59;4.30;;;2.50;;
6053;SDS011;3055;50.886;14.814;2022-07-29T01:20:33;3.90;;;2.60;;
6053;SDS011;3055;50.886;14.814;2022-07-29T01:23:25;3.80;;;2.67;;
6053;SDS011;3055;50.886;14.814;2022-07-29T01:26:13;3.13;;;2.80;;
6053;SDS011;3055;50.886;14.814;2022-07-29T01:29:04;3.30;;;2.57;;
6053;SDS011;3055;50.886;14.814;2022-07-29T01:31:39;4.23;;;3.30;;
6053;SDS011;3055;50.886;14.814;2022-07-29T01:34:17;3.30;;;3.00;;
6053;SDS011;3055;50.886;14.814;2022-07-29T01:36:48;3.77;;;3.40;;
6053;SDS011;3055;50.886;14.814;2022-07-29T01:39:22;3.87;;;3.30;;
6053;SDS011;3055;50.886;14.814;2022-07-29T01:41:56;3.70;;;3.40;;
6053;SDS011;3055;50.886;14.814;2022-07-29T01:44:30;3.27;;;2.97;;
6053;SDS011;3055;50.886;14.814;2022-07-29T01:47:05;4.27;;;3.30;;
6053;SDS011;3055;50.886;14.814;2022-07-29T01:49:39;3.83;;;3.20;;
6053;SDS011;3055;50.886;14.814;2022-07-29T01:52:13;5.63;;;3.60;;
6053;SDS011;3055;50.886;14.814;2022-07-29T01:54:47;7.07;;;3.73;;
6053;SDS011;3055;50.886;14.814;2022-07-29T01:57:19;4.90;;;3.20;;
6053;SDS011;3055;50.886;14.814;2022-07-29T01:59:52;4.67;;;3.83;;
6053;SDS011;3055;50.886;14.814;2022-07-29T02:02:21;4.63;;;3.10;;
6053;SDS011;3055;50.886;14.814;2022-07-29T02:04:49;4.33;;;3.40;;
6053;SDS011;3055;50.886;14.814;2022-07-29T02:07:19;5.67;;;3.17;;
6053;SDS011;3055;50.886;14.814;2022-07-29T02:09:49;3.43;;;3.00;;
6053;SDS011;3055;50.886;14.814;2022-07-29T02:12:18;3.83;;;3.40;;
6053;SDS011;3055;50.886;14.814;2022-07-29T02:14:47;4.37;;;3.20;;
6053;SDS011;3055;50.886;14.814;2022-07-29T02:17:19;4.37;;;2.50;;
6053;SDS011;3055;50.886;14.814;2022-07-29T02:19:49;7.10;;;3.20;;
6053;SDS011;3055;50.886;14.814;2022-07-29T02:22:18;4.30;;;2.73;;
6053;SDS011;3055;50.886;14.814;2022-07-29T02:24:45;5.90;;;3.43;;
6053;SDS011;3055;50.886;14.814;2022-07-29T02:27:13;4.07;;;3.40;;
6053;SDS011;3055;50.886;14.814;2022-07-29T02:29:41;3.30;;;3.03;;
6053;SDS011;3055;50.886;14.814;2022-07-29T02:32:09;4.23;;;3.13;;
6053;SDS011;3055;50.886;14.814;2022-07-29T02:34:38;5.73;;;3.87;;
6053;SDS011;3055;50.886;14.814;2022-07-29T02:37:07;5.20;;;2.93;;
6053;SDS011;3055;50.886;14.814;2022-07-29T02:39:36;3.50;;;3.13;;
6053;SDS011;3055;50.886;14.814;2022-07-29T02:42:05;4.70;;;3.67;;
6053;SDS011;3055;50.886;14.814;2022-07-29T02:44:36;4.43;;;3.40;;
6053;SDS011;3055;50.886;14.814;2022-07-29T02:47:04;3.67;;;3.30;;
6053;SDS011;3055;50.886;14.814;2022-07-29T02:49:42;5.07;;;3.77;;
6053;SDS011;3055;50.886;14.814;2022-07-29T02:52:18;5.23;;;3.50;;
6053;SDS011;3055;50.886;14.814;2022-07-29T02:54:51;4.47;;;3.80;;
6053;SDS011;3055;50.886;14.814;2022-07-29T02:57:21;3.40;;;3.10;;
6053;SDS011;3055;50.886;14.814;2022-07-29T02:59:54;4.30;;;2.90;;
6053;SDS011;3055;50.886;14.814;2022-07-29T03:02:25;4.50;;;3.17;;
6053;SDS011;3055;50.886;14.814;2022-07-29T03:04:54;5.37;;;3.13;;
6053;SDS011;3055;50.886;14.814;2022-07-29T03:07:22;5.03;;;3.47;;
6053;SDS011;3055;50.886;14.814;2022-07-29T03:09:50;4.03;;;3.70;;
6053;SDS011;3055;50.886;14.814;2022-07-29T03:12:17;7.37;;;3.40;;
6053;SDS011;3055;50.886;14.814;2022-07-29T03:14:45;4.97;;;3.23;;
6053;SDS011;3055;50.886;14.814;2022-07-29T03:17:13;4.23;;;2.97;;
6053;SDS011;3055;50.886;14.814;2022-07-29T03:19:41;3.83;;;3.10;;
6053;SDS011;3055;50.886;14.814;2022-07-29T03:22:10;4.13;;;3.20;;
6053;SDS011;3055;50.886;14.814;2022-07-29T03:24:38;5.60;;;3.67;;
6053;SDS011;3055;50.886;14.814;2022-07-29T03:27:05;6.73;;;3.80;;
6053;SDS011;3055;50.886;14.814;2022-07-29T03:29:32;5.00;;;3.60;;
6053;SDS011;3055;50.886;14.814;2022-07-29T03:31:59;4.33;;;3.50;;
6053;SDS011;3055;50.886;14.814;2022-07-29T03:34:26;4.47;;;3.90;;
6053;SDS011;3055;50.886;14.814;2022-07-29T03:36:52;5.33;;;3.73;;
6053;SDS011;3055;50.886;14.814;2022-07-29T03:39:22;5.10;;;3.87;;
6053;SDS011;3055;50.886;14.814;2022-07-29T03:41:52;5.87;;;3.50;;
6053;SDS011;3055;50.886;14.814;2022-07-29T03:44:21;4.63;;;3.70;;
6053;SDS011;3055;50.886;14.814;2022-07-29T03:46:50;5.77;;;4.37;;
6053;SDS011;3055;50.886;14.814;2022-07-29T03:49:20;4.67;;;4.07;;
6053;SDS011;3055;50.886;14.814;2022-07-29T03:51:49;4.90;;;4.10;;
6053;SDS011;3055;50.886;14.814;2022-07-29T03:54:16;4.97;;;3.53;;
6053;SDS011;3055;50.886;14.814;2022-07-29T03:56:45;4.97;;;3.47;;
6053;SDS011;3055;50.886;14.814;2022-07-29T03:59:14;4.67;;;3.40;;
6053;SDS011;3055;50.886;14.814;2022-07-29T04:01:44;4.67;;;3.07;;
6053;SDS011;3055;50.886;14.814;2022-07-29T04:04:12;3.87;;;3.50;;
6053;SDS011;3055;50.886;14.814;2022-07-29T04:06:39;4.37;;;3.70;;
6053;SDS011;3055;50.886;14.814;2022-07-29T04:09:07;5.80;;;3.37;;
6053;SDS011;3055;50.886;14.814;2022-07-29T04:11:35;6.00;;;3.33;;
6053;SDS011;3055;50.886;14.814;2022-07-29T04:14:04;7.67;;;3.43;;
6053;SDS011;3055;50.886;14.814;2022-07-29T04:16:31;6.70;;;4.10;;
6053;SDS011;3055;50.886;14.814;2022-07-29T04:18:58;9.63;;;6.30;;
6053;SDS011;3055;50.886;14.814;2022-07-29T04:21:25;7.70;;;4.90;;
6053;SDS011;3055;50.886;14.814;2022-07-29T04:23:52;4.53;;;4.13;;
6053;SDS011;3055;50.886;14.814;2022-07-29T04:26:19;5.10;;;3.43;;
6053;SDS011;3055;50.886;14.814;2022-07-29T04:28:46;3.50;;;3.20;;
6053;SDS011;3055;50.886;14.814;2022-07-29T04:31:17;3.60;;;3.30;;
6053;SDS011;3055;50.886;14.814;2022-07-29T04:33:44;7.20;;;4.00;;
6053;SDS011;3055;50.886;14.814;2022-07-29T04:36:11;4.13;;;3.40;;
6053;SDS011;3055;50.886;14.814;2022-07-29T04:38:38;4.63;;;2.70;;
6053;SDS011;3055;50.886;14.814;2022-07-29T04:41:05;4.37;;;3.10;;
6053;SDS011;3055;50.886;14.814;2022-07-29T04:43:33;4.97;;;2.77;;
6053;SDS011;3055;50.886;14.814;2022-07-29T04:46:00;4.50;;;2.83;;
6053;SDS011;3055;50.886;14.814;2022-07-29T04:48:29;5.87;;;3.03;;
6053;SDS011;3055;50.886;14.814;2022-07-29T04:50:56;7.83;;;2.73;;
6053;SDS011;3055;50.886;14.814;2022-07-29T04:53:23;6.83;;;2.97;;
6053;SDS011;3055;50.886;14.814;2022-07-29T04:55:50;6.40;;;3.10;;
6053;SDS011;3055;50.886;14.814;2022-07-29T04:58:17;4.80;;;2.53;;
6053;SDS011;3055;50.886;14.814;2022-07-29T05:00:44;4.20;;;3.30;;
6053;SDS011;3055;50.886;14.814;2022-07-29T05:03:11;3.80;;;3.27;;
6053;SDS011;3055;50.886;14.814;2022-07-29T05:05:39;5.63;;;2.90;;
6053;SDS011;3055;50.886;14.814;2022-07-29T05:08:07;3.60;;;3.03;;
6053;SDS011;3055;50.886;14.814;2022-07-29T05:10:34;6.70;;;2.97;;
6053;SDS011;3055;50.886;14.814;2022-07-29T05:13:03;4.70;;;3.00;;
6053;SDS011;3055;50.886;14.814;2022-07-29T05:15:31;5.27;;;3.23;;
6053;SDS011;3055;50.886;14.814;2022-07-29T05:17:58;5.03;;;3.17;;
6053;SDS011;3055;50.886;14.814;2022-07-29T05:20:25;4.33;;;3.57;;
6053;SDS011;3055;50.886;14.814;2022-07-29T05:22:54;5.57;;;3.47;;
6053;SDS011;3055;50.886;14.814;2022-07-29T05:25:22;7.60;;;3.60;;
6053;SDS011;3055;50.886;14.814;2022-07-29T05:27:50;6.67;;;4.10;;
6053;SDS011;3055;50.886;14.814;2022-07-29T05:30:17;7.53;;;4.37;;
6053;SDS011;3055;50.886;14.814;2022-07-29T05:32:44;6.47;;;3.47;;
6053;SDS011;3055;50.886;14.814;2022-07-29T05:35:12;6.50;;;3.60;;
6053;SDS011;3055;50.886;14.814;2022-07-29T05:37:39;5.37;;;4.07;;
6053;SDS011;3055;50.886;14.814;2022-07-29T05:40:08;5.30;;;3.77;;
6053;SDS011;3055;50.886;14.814;2022-07-29T05:42:35;6.97;;;3.63;;
6053;SDS011;3055;50.886;14.814;2022-07-29T05:45:03;4.80;;;3.40;;
6053;SDS011;3055;50.886;14.814;2022-07-29T05:47:31;4.13;;;3.60;;
6053;SDS011;3055;50.886;14.814;2022-07-29T05:49:58;4.83;;;4.03;;
6053;SDS011;3055;50.886;14.814;2022-07-29T05:52:24;6.43;;;3.80;;
6053;SDS011;3055;50.886;14.814;2022-07-29T05:54:51;5.80;;;4.20;;
6053;SDS011;3055;50.886;14.814;2022-07-29T05:57:21;8.90;;;4.10;;
6053;SDS011;3055;50.886;14.814;2022-07-29T05:59:49;7.53;;;4.83;;
6053;SDS011;3055;50.886;14.814;2022-07-29T06:02:17;10.30;;;4.40;;
6053;SDS011;3055;50.886;14.814;2022-07-29T06:04:44;9.27;;;4.50;;
6053;SDS011;3055;50.886;14.814;2022-07-29T06:07:11;9.33;;;4.30;;
6053;SDS011;3055;50.886;14.814;2022-07-29T06:09:38;6.63;;;4.33;;
6053;SDS011;3055;50.886;14.814;2022-07-29T06:12:05;11.23;;;4.70;;
6053;SDS011;3055;50.886;14.814;2022-07-29T06:14:33;14.50;;;4.13;;
6053;SDS011;3055;50.886;14.814;2022-07-29T06:17:00;3.80;;;3.50;;
6053;SDS011;3055;50.886;14.814;2022-07-29T06:19:27;9.10;;;3.63;;
6053;SDS011;3055;50.886;14.814;2022-07-29T06:21:54;11.47;;;4.33;;
6053;SDS011;3055;50.886;14.814;2022-07-29T06:24:21;8.93;;;3.57;;
6053;SDS011;3055;50.886;14.814;2022-07-29T06:26:49;11.83;;;3.93;;
6053;SDS011;3055;50.886;14.814;2022-07-29T06:29:16;9.17;;;4.40;;
6053;SDS011;3055;50.886;14.814;2022-07-29T06:31:44;10.57;;;4.50;;
6053;SDS011;3055;50.886;14.814;2022-07-29T06:34:11;9.87;;;4.27;;
6053;SDS011;3055;50.886;14.814;2022-07-29T06:36:38;4.10;;;3.70;;
6053;SDS011;3055;50.886;14.814;2022-07-29T06:39:05;10.90;;;4.50;;
6053;SDS011;3055;50.886;14.814;2022-07-29T06:41:32;10.97;;;4.03;;
6053;SDS011;3055;50.886;14.814;2022-07-29T06:43:59;9.40;;;3.63;;
6053;SDS011;3055;50.886;14.814;2022-07-29T06:46:26;6.33;;;3.90;;
6053;SDS011;3055;50.886;14.814;2022-07-29T06:48:55;9.43;;;4.90;;
6053;SDS011;3055;50.886;14.814;2022-07-29T06:51:22;9.77;;;3.90;;
6053;SDS011;3055;50.886;14.814;2022-07-29T06:53:49;9.17;;;3.40;;
6053;SDS011;3055;50.886;14.814;2022-07-29T06:56:17;8.77;;;4.17;;
6053;SDS011;3055;50.886;14.814;2022-07-29T06:58:43;6.27;;;3.90;;
6053;SDS011;3055;50.886;14.814;2022-07-29T07:01:11;7.83;;;3.93;;
6053;SDS011;3055;50.886;14.814;2022-07-29T07:03:38;6.27;;;3.50;;
6053;SDS011;3055;50.886;14.814;2022-07-29T07:06:06;5.70;;;3.43;;
6053;SDS011;3055;50.886;14.814;2022-07-29T07:08:33;7.30;;;3.90;;
6053;SDS011;3055;50.886;14.814;2022-07-29T07:11:00;7.60;;;3.63;;
6053;SDS011;3055;50.886;14.814;2022-07-29T07:13:29;7.50;;;3.20;;
6053;SDS011;3055;50.886;14.814;2022-07-29T07:15:59;7.87;;;3.10;;
6053;SDS011;3055;50.886;14.814;2022-07-29T07:18:26;9.10;;;3.37;;
6053;SDS011;3055;50.886;14.814;2022-07-29T07:20:53;9.17;;;3.57;;
6053;SDS011;3055;50.886;14.814;2022-07-29T07:23:22;6.90;;;3.10;;
6053;SDS011;3055;50.886;14.814;2022-07-29T07:25:49;9.27;;;3.33;;
6053;SDS011;3055;50.886;14.814;2022-07-29T07:28:17;8.20;;;3.23;;
6053;SDS011;3055;50.886;14.814;2022-07-29T07:30:44;5.50;;;2.97;;
6053;SDS011;3055;50.886;14.814;2022-07-29T07:33:12;9.23;;;3.73;;
6053;SDS011;3055;50.886;14.814;2022-07-29T07:35:39;4.87;;;2.93;;
6053;SDS011;3055;50.886;14.814;2022-07-29T07:38:06;6.83;;;3.27;;
6053;SDS011;3055;50.886;14.814;2022-07-29T07:40:34;9.60;;;3.03;;
6053;SDS011;3055;50.886;14.814;2022-07-29T07:43:02;8.23;;;3.20;;
6053;SDS011;3055;50.886;14.814;2022-07-29T07:45:29;6.03;;;2.90;;
6053;SDS011;3055;50.886;14.814;2022-07-29T07:47:57;4.97;;;3.10;;
6053;SDS011;3055;50.886;14.814;2022-07-29T07:50:24;5.70;;;3.47;;
6053;SDS011;3055;50.886;14.814;2022-07-29T07:52:52;5.37;;;3.87;;
6053;SDS011;3055;50.886;14.814;2022-07-29T07:55:22;6.27;;;3.47;;
6053;SDS011;3055;50.886;14.814;2022-07-29T07:57:51;5.67;;;3.50;;
6053;SDS011;3055;50.886;14.814;2022-07-29T08:00:18;11.77;;;3.70;;
6053;SDS011;3055;50.886;14.814;2022-07-29T08:02:46;5.37;;;3.30;;
6053;SDS011;3055;50.886;14.814;2022-07-29T08:05:13;5.20;;;3.03;;
6053;SDS011;3055;50.886;14.814;2022-07-29T08:07:42;5.97;;;3.07;;
6053;SDS011;3055;50.886;14.814;2022-07-29T08:10:10;5.53;;;2.63;;
6053;SDS011;3055;50.886;14.814;2022-07-29T08:12:38;6.43;;;3.10;;
6053;SDS011;3055;50.886;14.814;2022-07-29T08:15:07;7.07;;;2.87;;
6053;SDS011;3055;50.886;14.814;2022-07-29T08:17:34;7.80;;;2.90;;
6053;SDS011;3055;50.886;14.814;2022-07-29T08:20:02;4.47;;;2.63;;
6053;SDS011;3055;50.886;14.814;2022-07-29T08:22:29;6.07;;;2.70;;
6053;SDS011;3055;50.886;14.814;2022-07-29T08:24:56;4.47;;;2.43;;
6053;SDS011;3055;50.886;14.814;2022-07-29T08:27:23;4.47;;;2.60;;
6053;SDS011;3055;50.886;14.814;2022-07-29T08:29:51;5.13;;;2.93;;
6053;SDS011;3055;50.886;14.814;2022-07-29T08:32:19;7.63;;;2.70;;
6053;SDS011;3055;50.886;14.814;2022-07-29T08:34:46;11.70;;;3.20;;
6053;SDS011;3055;50.886;14.814;2022-07-29T08:37:13;18.43;;;3.43;;
6053;SDS011;3055;50.886;14.814;2022-07-29T08:39:40;11.73;;;2.97;;
6053;SDS011;3055;50.886;14.814;2022-07-29T08:42:07;9.87;;;3.33;;
6053;SDS011;3055;50.886;14.814;2022-07-29T08:44:34;8.60;;;2.73;;
6053;SDS011;3055;50.886;14.814;2022-07-29T08:47:03;11.90;;;3.43;;
6053;SDS011;3055;50.886;14.814;2022-07-29T08:49:33;21.17;;;4.33;;
6053;SDS011;3055;50.886;14.814;2022-07-29T08:52:06;15.47;;;4.30;;
6053;SDS011;3055;50.886;14.814;2022-07-29T08:54:38;20.03;;;4.87;;
6053;SDS011;3055;50.886;14.814;2022-07-29T08:57:05;12.00;;;3.23;;
6053;SDS011;3055;50.886;14.814;2022-07-29T08:59:32;12.53;;;3.73;;
6053;SDS011;3055;50.886;14.814;2022-07-29T09:02:01;14.77;;;3.17;;
6053;SDS011;3055;50.886;14.814;2022-07-29T09:04:29;10.27;;;3.63;;
6053;SDS011;3055;50.886;14.814;2022-07-29T09:07:02;11.40;;;3.83;;
6053;SDS011;3055;50.886;14.814;2022-07-29T09:09:30;9.37;;;3.50;;
6053;SDS011;3055;50.886;14.814;2022-07-29T09:11:59;9.40;;;2.60;;
6053;SDS011;3055;50.886;14.814;2022-07-29T09:14:26;12.00;;;2.90;;
6053;SDS011;3055;50.886;14.814;2022-07-29T09:16:54;10.27;;;3.00;;
6053;SDS011;3055;50.886;14.814;2022-07-29T09:19:22;3.90;;;2.67;;
6053;SDS011;3055;50.886;14.814;2022-07-29T09:21:51;12.50;;;2.93;;
6053;SDS011;3055;50.886;14.814;2022-07-29T09:24:25;6.37;;;2.60;;
6053;SDS011;3055;50.886;14.814;2022-07-29T09:27:01;9.13;;;2.97;;
6053;SDS011;3055;50.886;14.814;2022-07-29T09:29:28;9.20;;;2.57;;
6053;SDS011;3055;50.886;14.814;2022-07-29T09:31:56;8.13;;;3.03;;
6053;SDS011;3055;50.886;14.814;2022-07-29T09:34:24;12.13;;;3.33;;
6053;SDS011;3055;50.886;14.814;2022-07-29T09:36:53;12.07;;;2.57;;
6053;SDS011;3055;50.886;14.814;2022-07-29T09:39:29;9.50;;;2.90;;
6053;SDS011;3055;50.886;14.814;2022-07-29T09:41:57;10.63;;;3.33;;
6053;SDS011;3055;50.886;14.814;2022-07-29T09:44:25;6.17;;;2.47;;
6053;SDS011;3055;50.886;14.814;2022-07-29T09:46:53;6.40;;;2.80;;
6053;SDS011;3055;50.886;14.814;2022-07-29T09:49:21;5.83;;;2.83;;
6053;SDS011;3055;50.886;14.814;2022-07-29T09:51:58;5.70;;;2.47;;
6053;SDS011;3055;50.886;14.814;2022-07-29T09:54:26;6.70;;;2.00;;
6053;SDS011;3055;50.886;14.814;2022-07-29T09:56:59;7.70;;;2.50;;
6053;SDS011;3055;50.886;14.814;2022-07-29T09:59:26;3.97;;;2.33;;
6053;SDS011;3055;50.886;14.814;2022-07-29T10:01:53;10.73;;;2.77;;
6053;SDS011;3055;50.886;14.814;2022-07-29T10:04:20;8.60;;;2.30;;
6053;SDS011;3055;50.886;14.814;2022-07-29T10:06:56;9.70;;;2.53;;
6053;SDS011;3055;50.886;14.814;2022-07-29T10:09:25;13.17;;;2.53;;
6053;SDS011;3055;50.886;14.814;2022-07-29T10:12:07;3.33;;;2.23;;
6053;SDS011;3055;50.886;14.814;2022-07-29T10:14:36;3.97;;;1.93;;
6053;SDS011;3055;50.886;14.814;2022-07-29T10:17:04;6.53;;;2.17;;
6053;SDS011;3055;50.886;14.814;2022-07-29T10:19:32;3.17;;;2.20;;
6053;SDS011;3055;50.886;14.814;2022-07-29T10:22:01;6.87;;;2.60;;
6053;SDS011;3055;50.886;14.814;2022-07-29T10:24:30;10.93;;;2.97;;
6053;SDS011;3055;50.886;14.814;2022-07-29T10:26:57;6.17;;;2.80;;
6053;SDS011;3055;50.886;14.814;2022-07-29T10:29:27;10.07;;;2.90;;
6053;SDS011;3055;50.886;14.814;2022-07-29T10:35:15;7.50;;;2.57;;
6053;SDS011;3055;50.886;14.814;2022-07-29T10:38:00;4.87;;;2.30;;
6053;SDS011;3055;50.886;14.814;2022-07-29T10:40:49;6.30;;;2.40;;
6053;SDS011;3055;50.886;14.814;2022-07-29T10:43:40;4.73;;;2.40;;
6053;SDS011;3055;50.886;14.814;2022-07-29T10:46:11;6.77;;;2.47;;
6053;SDS011;3055;50.886;14.814;2022-07-29T10:54:35;3.67;;;2.30;;
6053;SDS011;3055;50.886;14.814;2022-07-29T10:57:14;4.27;;;2.40;;
6053;SDS011;3055;50.886;14.814;2022-07-29T10:59:43;4.37;;;2.67;;
6053;SDS011;3055;50.886;14.814;2022-07-29T11:05:17;8.40;;;2.37;;
6053;SDS011;3055;50.886;14.814;2022-07-29T11:10:45;3.73;;;2.43;;
6053;SDS011;3055;50.886;14.814;2022-07-29T11:13:12;6.10;;;2.37;;
6053;SDS011;3055;50.886;14.814;2022-07-29T11:15:59;5.07;;;3.00;;
6053;SDS011;3055;50.886;14.814;2022-07-29T11:18:28;7.87;;;2.60;;
6053;SDS011;3055;50.886;14.814;2022-07-29T11:20:55;5.70;;;2.67;;
6053;SDS011;3055;50.886;14.814;2022-07-29T11:23:23;4.70;;;2.00;;
6053;SDS011;3055;50.886;14.814;2022-07-29T11:28:49;3.27;;;2.37;;
6053;SDS011;3055;50.886;14.814;2022-07-29T11:31:19;6.53;;;3.57;;
6053;SDS011;3055;50.886;14.814;2022-07-29T11:34:12;5.93;;;2.40;;
6053;SDS011;3055;50.886;14.814;2022-07-29T11:39:45;4.13;;;2.60;;
6053;SDS011;3055;50.886;14.814;2022-07-29T11:45:10;4.07;;;2.43;;
6053;SDS011;3055;50.886;14.814;2022-07-29T11:47:39;3.40;;;2.30;;
6053;SDS011;3055;50.886;14.814;2022-07-29T11:50:10;3.53;;;2.97;;
6053;SDS011;3055;50.886;14.814;2022-07-29T11:52:38;3.93;;;2.53;;
6053;SDS011;3055;50.886;14.814;2022-07-29T11:55:11;2.57;;;2.37;;
6053;SDS011;3055;50.886;14.814;2022-07-29T11:57:45;4.73;;;2.63;;
6053;SDS011;3055;50.886;14.814;2022-07-29T12:00:16;8.87;;;2.40;;
6053;SDS011;3055;50.886;14.814;2022-07-29T12:02:51;5.23;;;2.20;;
6053;SDS011;3055;50.886;14.814;2022-07-29T12:05:20;2.87;;;2.20;;
6053;SDS011;3055;50.886;14.814;2022-07-29T12:07:58;5.20;;;2.67;;
6053;SDS011;3055;50.886;14.814;2022-07-29T12:10:38;8.27;;;2.90;;
6053;SDS011;3055;50.886;14.814;2022-07-29T12:13:06;3.87;;;2.33;;
6053;SDS011;3055;50.886;14.814;2022-07-29T12:15:34;5.90;;;2.60;;
6053;SDS011;3055;50.886;14.814;2022-07-29T12:18:10;4.20;;;2.20;;
6053;SDS011;3055;50.886;14.814;2022-07-29T12:20:40;5.13;;;2.60;;
6053;SDS011;3055;50.886;14.814;2022-07-29T12:23:08;5.97;;;2.23;;
6053;SDS011;3055;50.886;14.814;2022-07-29T12:25:37;4.70;;;2.13;;
6053;SDS011;3055;50.886;14.814;2022-07-29T12:28:05;2.70;;;2.27;;
6053;SDS011;3055;50.886;14.814;2022-07-29T12:30:35;5.70;;;2.70;;
6053;SDS011;3055;50.886;14.814;2022-07-29T12:35:49;3.77;;;2.50;;
6053;SDS011;3055;50.886;14.814;2022-07-29T12:38:18;3.60;;;2.23;;
6053;SDS011;3055;50.886;14.814;2022-07-29T12:40:46;5.50;;;2.77;;
6053;SDS011;3055;50.886;14.814;2022-07-29T12:43:14;3.83;;;2.40;;
6053;SDS011;3055;50.886;14.814;2022-07-29T12:45:43;6.00;;;2.70;;
6053;SDS011;3055;50.886;14.814;2022-07-29T12:48:12;8.13;;;2.57;;
6053;SDS011;3055;50.886;14.814;2022-07-29T12:50:54;4.20;;;2.53;;
6053;SDS011;3055;50.886;14.814;2022-07-29T12:53:23;2.63;;;2.27;;
6053;SDS011;3055;50.886;14.814;2022-07-29T12:55:52;2.37;;;2.17;;
6053;SDS011;3055;50.886;14.814;2022-07-29T12:58:31;5.63;;;2.37;;
6053;SDS011;3055;50.886;14.814;2022-07-29T13:01:00;3.60;;;2.27;;
6053;SDS011;3055;50.886;14.814;2022-07-29T13:03:28;4.37;;;2.00;;
6053;SDS011;3055;50.886;14.814;2022-07-29T13:06:09;2.83;;;1.80;;
6053;SDS011;3055;50.886;14.814;2022-07-29T13:09:02;4.70;;;2.13;;
6053;SDS011;3055;50.886;14.814;2022-07-29T13:11:30;3.40;;;2.10;;
6053;SDS011;3055;50.886;14.814;2022-07-29T13:13:57;2.67;;;2.10;;
6053;SDS011;3055;50.886;14.814;2022-07-29T13:16:24;3.43;;;2.27;;
6053;SDS011;3055;50.886;14.814;2022-07-29T13:19:02;5.67;;;2.40;;
6053;SDS011;3055;50.886;14.814;2022-07-29T13:21:35;5.90;;;2.57;;
6053;SDS011;3055;50.886;14.814;2022-07-29T13:24:04;4.07;;;2.20;;
6053;SDS011;3055;50.886;14.814;2022-07-29T13:26:32;3.50;;;2.13;;
6053;SDS011;3055;50.886;14.814;2022-07-29T13:29:00;8.00;;;2.17;;
6053;SDS011;3055;50.886;14.814;2022-07-29T13:31:26;4.70;;;2.07;;
6053;SDS011;3055;50.886;14.814;2022-07-29T13:33:54;2.20;;;1.80;;
6053;SDS011;3055;50.886;14.814;2022-07-29T13:36:21;4.27;;;2.23;;
6053;SDS011;3055;50.886;14.814;2022-07-29T13:38:50;2.80;;;2.03;;
6053;SDS011;3055;50.886;14.814;2022-07-29T13:41:17;3.80;;;2.23;;
6053;SDS011;3055;50.886;14.814;2022-07-29T13:43:45;5.07;;;2.27;;
6053;SDS011;3055;50.886;14.814;2022-07-29T13:46:13;3.13;;;2.37;;
6053;SDS011;3055;50.886;14.814;2022-07-29T13:48:40;2.57;;;2.17;;
6053;SDS011;3055;50.886;14.814;2022-07-29T13:51:07;5.00;;;2.43;;
6053;SDS011;3055;50.886;14.814;2022-07-29T13:53:34;2.70;;;2.33;;
6053;SDS011;3055;50.886;14.814;2022-07-29T13:56:04;4.07;;;2.27;;
6053;SDS011;3055;50.886;14.814;2022-07-29T13:58:32;4.67;;;1.90;;
6053;SDS011;3055;50.886;14.814;2022-07-29T14:00:59;4.23;;;2.30;;
6053;SDS011;3055;50.886;14.814;2022-07-29T14:03:27;3.80;;;2.03;;
6053;SDS011;3055;50.886;14.814;2022-07-29T14:05:57;5.77;;;2.23;;
6053;SDS011;3055;50.886;14.814;2022-07-29T14:08:26;6.33;;;2.60;;
6053;SDS011;3055;50.886;14.814;2022-07-29T14:10:53;4.47;;;2.10;;
6053;SDS011;3055;50.886;14.814;2022-07-29T14:13:21;4.13;;;2.20;;
6053;SDS011;3055;50.886;14.814;2022-07-29T14:15:49;7.77;;;2.53;;
6053;SDS011;3055;50.886;14.814;2022-07-29T14:18:16;3.57;;;2.10;;
6053;SDS011;3055;50.886;14.814;2022-07-29T14:20:43;5.07;;;2.40;;
6053;SDS011;3055;50.886;14.814;2022-07-29T14:23:10;3.10;;;1.87;;
6053;SDS011;3055;50.886;14.814;2022-07-29T14:25:40;7.53;;;1.93;;
6053;SDS011;3055;50.886;14.814;2022-07-29T14:28:07;3.90;;;2.47;;
6053;SDS011;3055;50.886;14.814;2022-07-29T14:30:36;4.97;;;2.40;;
6053;SDS011;3055;50.886;14.814;2022-07-29T14:33:03;5.67;;;2.30;;
6053;SDS011;3055;50.886;14.814;2022-07-29T14:35:30;3.20;;;1.87;;
6053;SDS011;3055;50.886;14.814;2022-07-29T14:37:58;4.47;;;2.53;;
6053;SDS011;3055;50.886;14.814;2022-07-29T14:40:25;8.33;;;2.80;;
6053;SDS011;3055;50.886;14.814;2022-07-29T14:42:52;3.63;;;2.23;;
6053;SDS011;3055;50.886;14.814;2022-07-29T14:45:20;4.03;;;2.50;;
6053;SDS011;3055;50.886;14.814;2022-07-29T14:47:49;5.23;;;2.40;;
6053;SDS011;3055;50.886;14.814;2022-07-29T14:50:16;5.03;;;2.60;;
6053;SDS011;3055;50.886;14.814;2022-07-29T14:52:44;4.83;;;2.53;;
6053;SDS011;3055;50.886;14.814;2022-07-29T14:55:11;4.10;;;2.30;;
6053;SDS011;3055;50.886;14.814;2022-07-29T14:57:38;6.30;;;2.23;;
6053;SDS011;3055;50.886;14.814;2022-07-29T15:00:05;4.57;;;2.20;;
6053;SDS011;3055;50.886;14.814;2022-07-29T15:02:33;5.33;;;2.50;;
6053;SDS011;3055;50.886;14.814;2022-07-29T15:05:02;4.67;;;2.47;;
6053;SDS011;3055;50.886;14.814;2022-07-29T15:07:29;2.70;;;2.50;;
6053;SDS011;3055;50.886;14.814;2022-07-29T15:09:56;2.80;;;2.13;;
6053;SDS011;3055;50.886;14.814;2022-07-29T15:12:23;2.37;;;2.13;;
6053;SDS011;3055;50.886;14.814;2022-07-29T15:14:50;4.00;;;2.23;;
6053;SDS011;3055;50.886;14.814;2022-07-29T15:17:16;4.00;;;2.23;;
6053;SDS011;3055;50.886;14.814;2022-07-29T15:19:45;5.30;;;2.27;;
6053;SDS011;3055;50.886;14.814;2022-07-29T15:22:13;3.73;;;2.73;;
6053;SDS011;3055;50.886;14.814;2022-07-29T15:24:40;6.43;;;2.93;;
6053;SDS011;3055;50.886;14.814;2022-07-29T15:27:07;4.37;;;2.70;;
6053;SDS011;3055;50.886;14.814;2022-07-29T15:29:38;8.53;;;2.90;;
6053;SDS011;3055;50.886;14.814;2022-07-29T15:32:06;4.87;;;2.40;;
6053;SDS011;3055;50.886;14.814;2022-07-29T15:34:33;3.77;;;2.50;;
6053;SDS011;3055;50.886;14.814;2022-07-29T15:37:00;4.30;;;2.77;;
6053;SDS011;3055;50.886;14.814;2022-07-29T15:39:28;5.90;;;2.87;;